Kirishima, Japan
Current Conditions -  °F | °C
As of 6:00 PM on Thursday 27 Nov 2014 (Local Time) from RJFK Reporting Station
Few Clouds Few Clouds  
Wind Chill: 57°   Ceiling: Unl
Heat Index: 57°   Visibility: 6mi
Dew Point: 45°   Wind: 7mph
Humidity: 63%   Direction: 110°ESE
Pressure: 30.18"   Gusts: NA
Location:  31.82°N, 130.77°E
Report Text: RJFK 270900Z 11006KT 9999 FEW030 14/07 Q1022
Loading
Personal Weather Stations






























Interactive Weather Map New forecast layout! Learn more

10-Day Weather Forecast

Advertisements
Track Severe Weather on mobile